SAOC/RCU METAR and TAF weather

Enter ICAO airport designator
Station Type Date Time Source
SAOC METAR 2021/05/13 01:00 UTC NOAA

SAOC 130100Z 36007KT CAVOK 11/04 Q1017


Station Type Date Time Source
SAOC Decoded METAR 2021/05/13 01:00 UTC NOAA

Rio Cuarto Aerodrome, Argentina (SAOC) 33-07S 064-14W 421M
May 12, 2021 - 09:00 PM EDT / 2021.05.13 0100 UTC
Wind: from the N (360 degrees) at 8 MPH (7 KT):0
Visibility: greater than 7 mile(s):0
Temperature: 51 F (11 C)
Dew Point: 39 F (4 C)
Relative Humidity: 61%
Pressure (altimeter): 30.03 in. Hg (1017 hPa)
ob: SAOC 130100Z 36007KT CAVOK 11/04 Q1017
cycle: 1

Station Type Date Time Source
SAOC TAF 2021/05/08 12:15 UTC NOAA

TAF SAOC 081100Z 0812/0912 05010KT 5000 BR NSC TX18/0818Z TN08/0810Z
BECMG 0814/0816 02020KT CAVOK
BECMG 0901/0903 36010KT

Example: see airport list